メインページ
METAR-TAF:

METAR-TAF

空港 :

西安咸陽国際空港

西安, 中華人民共和国

緯度: 34-26N, 経度: 108-45E, 海抜: 479m

現時点の気象観測

当レポートは1時間7分前の03:00(UTC)に作成
西の風 8kt、南/南西から北/北西の間で変化する
気温 21°C
湿度 35%
気圧 1023 hPa
視程10km以上
1,500メートル以下は雲なし、積乱雲なし

METAR: ZLXY 220300Z 27004MPS 210V330 CAVOK 21/05 Q1023 NOSIG

時間: 12:07 (04:07 UTC)

予報

当レポートは8時間58分前の19:09(UTC)に作成
予報は22日の 00時(UTC)から 22日の 24時(UTC)まで有効
西の風 6kt
視程: 3000m
煙霧

TAF: ZLXY 211909Z 2200/2224 26003MPS 3000 HZ NSC TX26/2208Z TN11/2222Z

4,000以上の空港の気象観測と天気予報(METAR報とTAF報)

利用可能な観測所は地図上に黄色い丸と赤い丸で示す。

丸の上にカーソルを重ねると観測所名を参照できる。

次にクリックすると気象観測と天気予報を参照できる。

マップの切り替え:黒色「×」印の緑ボタンをクリックして拡大、「-」印の緑ボタンをクリックして縮小、緑色の三角印をクリックして隣りの地図に切り替え


METAR-TAF: